createdAt,value
2018-09-04T00:00:50.350Z,3.27
2018-09-04T00:04:54.785Z,3.43
2018-09-04T00:08:59.092Z,3.30
2018-09-04T00:13:03.324Z,4.50
2018-09-04T00:17:07.619Z,3.97
2018-09-04T00:21:12.177Z,4.73
2018-09-04T00:25:16.697Z,3.77
2018-09-04T00:29:20.869Z,4.03
2018-09-04T00:33:25.251Z,4.00
2018-09-04T00:37:29.695Z,4.40
2018-09-04T00:41:34.017Z,4.30
2018-09-04T00:45:38.216Z,4.40
2018-09-04T00:49:42.542Z,3.80
2018-09-04T00:53:46.943Z,4.43
2018-09-04T00:57:51.216Z,4.00
2018-09-04T01:01:55.507Z,3.90
2018-09-04T01:05:59.951Z,3.77
2018-09-04T01:10:04.356Z,3.60
2018-09-04T01:14:08.607Z,3.60
2018-09-04T01:18:13.189Z,4.33
2018-09-04T01:22:17.360Z,4.27
2018-09-04T01:26:21.884Z,4.67
2018-09-04T01:30:26.333Z,3.07
2018-09-04T01:34:30.531Z,4.10
2018-09-04T01:38:35.046Z,2.70
2018-09-04T01:42:39.272Z,3.47
2018-09-04T01:46:43.449Z,4.13
2018-09-04T01:50:47.768Z,5.40
2018-09-04T01:54:51.955Z,3.57
2018-09-04T01:58:56.318Z,3.93
2018-09-04T02:03:00.589Z,4.47
2018-09-04T02:07:04.913Z,4.77
2018-09-04T02:11:09.312Z,4.43
2018-09-04T02:15:13.492Z,3.30
2018-09-04T02:19:17.693Z,4.00
2018-09-04T02:23:21.969Z,6.50
2018-09-04T02:27:26.139Z,5.93
2018-09-04T02:31:30.431Z,5.40
2018-09-04T02:35:34.670Z,5.60
2018-09-04T02:39:38.862Z,4.20
2018-09-04T02:43:43.199Z,4.30
2018-09-04T02:47:47.374Z,3.40
2018-09-04T02:51:51.598Z,4.40
2018-09-04T02:55:56.013Z,3.90
2018-09-04T03:00:00.300Z,3.80
2018-09-04T03:04:04.610Z,3.90
2018-09-04T03:08:08.857Z,3.27
2018-09-04T03:12:13.192Z,3.70
2018-09-04T03:16:17.393Z,3.17
2018-09-04T03:20:21.584Z,4.10
2018-09-04T03:24:26.080Z,4.17
2018-09-04T03:28:30.621Z,4.20
2018-09-04T03:32:35.096Z,4.23
2018-09-04T03:36:39.517Z,3.57
2018-09-04T03:40:43.724Z,3.20
2018-09-04T03:44:48.260Z,3.50
2018-09-04T03:48:52.940Z,3.60
2018-09-04T03:52:57.128Z,4.20
2018-09-04T03:57:01.759Z,3.60
2018-09-04T04:01:06.141Z,4.30
2018-09-04T04:05:10.385Z,3.47
2018-09-04T04:09:14.848Z,3.27
2018-09-04T04:13:19.169Z,4.33
2018-09-04T04:17:23.551Z,3.20
2018-09-04T04:21:28.035Z,4.30
2018-09-04T04:25:32.459Z,4.70
2018-09-04T04:29:36.931Z,3.97
2018-09-04T04:33:41.261Z,3.77
2018-09-04T04:37:45.628Z,3.80
2018-09-04T04:41:49.856Z,3.37
2018-09-04T04:45:54.105Z,3.43
2018-09-04T04:49:58.711Z,4.53
2018-09-04T04:54:03.166Z,3.77
2018-09-04T04:58:07.379Z,3.47
2018-09-04T05:02:11.653Z,3.10
2018-09-04T05:06:16.129Z,4.30
2018-09-04T05:10:20.318Z,4.10
2018-09-04T05:14:25.323Z,3.37
2018-09-04T05:18:29.500Z,4.20
2018-09-04T05:22:34.173Z,3.87
2018-09-04T05:26:38.348Z,3.17
2018-09-04T05:30:42.700Z,3.00
2018-09-04T05:34:46.913Z,3.90
2018-09-04T05:38:51.156Z,3.97
2018-09-04T05:42:57.724Z,3.00
2018-09-04T05:47:02.062Z,2.70
2018-09-04T05:51:06.382Z,2.43
2018-09-04T05:55:10.600Z,3.30
2018-09-04T05:59:14.885Z,2.60
2018-09-04T06:03:19.057Z,2.50
2018-09-04T06:07:23.329Z,1.93
2018-09-04T06:11:27.598Z,2.57
2018-09-04T06:15:31.816Z,2.27
2018-09-04T06:19:36.192Z,2.27
2018-09-04T06:23:40.346Z,1.90
2018-09-04T06:27:44.683Z,1.73
2018-09-04T06:31:48.947Z,2.27
2018-09-04T06:35:53.160Z,1.90
2018-09-04T06:44:06.544Z,2.23
2018-09-04T06:48:10.758Z,1.93
2018-09-04T06:52:15.016Z,2.23
2018-09-04T06:56:19.288Z,2.33
2018-09-04T07:00:23.685Z,1.93
2018-09-04T07:04:27.860Z,2.00
2018-09-04T07:08:32.060Z,1.73
2018-09-04T07:12:36.565Z,2.00
2018-09-04T07:16:41.212Z,2.30
2018-09-04T07:20:45.605Z,2.57
2018-09-04T07:24:49.850Z,2.77
2018-09-04T07:28:54.040Z,1.67
2018-09-04T07:32:58.414Z,2.13
2018-09-04T07:37:02.720Z,2.00
2018-09-04T07:41:06.952Z,1.97
2018-09-04T07:45:11.448Z,2.50
2018-09-04T07:49:15.646Z,2.13
2018-09-04T07:53:20.067Z,2.33
2018-09-04T07:57:24.479Z,2.00
2018-09-04T08:01:28.950Z,2.10
2018-09-04T08:05:33.333Z,2.47
2018-09-04T08:09:37.591Z,2.00
2018-09-04T08:13:41.832Z,1.90
2018-09-04T08:17:46.274Z,2.33
2018-09-04T08:21:50.516Z,2.17
2018-09-04T08:25:54.680Z,2.80
2018-09-04T08:29:58.929Z,2.43
2018-09-04T08:34:03.115Z,2.10
2018-09-04T08:38:07.404Z,2.13
2018-09-04T08:42:11.637Z,2.40
2018-09-04T08:46:16.195Z,2.57
2018-09-04T08:50:20.503Z,2.70
2018-09-04T08:54:24.795Z,2.47
2018-09-04T08:58:29.045Z,2.40
2018-09-04T09:02:33.402Z,2.23
2018-09-04T09:06:37.692Z,3.23
2018-09-04T09:10:42.148Z,2.30
2018-09-04T09:14:46.363Z,2.40
2018-09-04T09:18:50.887Z,2.00
2018-09-04T09:22:55.250Z,2.30
2018-09-04T09:26:59.523Z,2.67
2018-09-04T09:31:03.725Z,2.33
2018-09-04T09:35:08.066Z,1.87
2018-09-04T09:39:12.285Z,2.27
2018-09-04T09:43:16.639Z,3.10
2018-09-04T09:47:20.838Z,2.50
2018-09-04T09:51:25.049Z,2.23
2018-09-04T09:55:29.518Z,2.67
2018-09-04T09:59:33.787Z,2.87
2018-09-04T10:03:43.354Z,2.80
2018-09-04T10:07:47.796Z,2.33
2018-09-04T10:11:52.107Z,2.50
2018-09-04T10:15:56.405Z,2.30
2018-09-04T10:20:00.799Z,2.80
2018-09-04T10:24:04.975Z,3.30
2018-09-04T10:28:09.344Z,2.73
2018-09-04T10:32:13.612Z,2.37
2018-09-04T10:36:17.918Z,2.57
2018-09-04T10:40:27.220Z,2.30
2018-09-04T10:44:32.732Z,2.40
2018-09-04T10:48:36.992Z,2.17
2018-09-04T10:52:41.160Z,2.00
2018-09-04T10:56:45.492Z,2.57
2018-09-04T11:00:49.797Z,2.27
2018-09-04T11:04:54.069Z,2.53
2018-09-04T11:08:58.481Z,2.53
2018-09-04T11:13:02.728Z,2.20
2018-09-04T11:17:07.235Z,2.20
2018-09-04T11:21:11.467Z,2.87
2018-09-04T11:25:15.692Z,2.63
2018-09-04T11:29:20.222Z,2.13
2018-09-04T11:33:24.498Z,2.47
2018-09-04T11:37:28.689Z,2.07
2018-09-04T11:41:33.108Z,2.10
2018-09-04T11:45:37.279Z,2.33
2018-09-04T11:49:42.242Z,2.00
2018-09-04T11:53:46.927Z,1.93
2018-09-04T11:57:51.129Z,2.47
2018-09-04T12:01:58.406Z,2.03
2018-09-04T12:06:02.667Z,2.03
2018-09-04T12:10:07.654Z,2.00
2018-09-04T12:14:12.065Z,2.17
2018-09-04T12:18:16.287Z,1.97
2018-09-04T12:22:20.648Z,2.43
2018-09-04T12:26:25.019Z,2.43
2018-09-04T12:30:29.232Z,2.20
2018-09-04T12:34:33.490Z,2.30
2018-09-04T12:38:40.865Z,1.67
2018-09-04T12:42:45.145Z,2.20
2018-09-04T12:46:49.341Z,2.63
2018-09-04T12:50:54.780Z,2.33
2018-09-04T12:54:59.599Z,2.83
2018-09-04T12:59:05.527Z,3.07
2018-09-04T13:03:09.848Z,2.10
2018-09-04T13:07:14.185Z,1.80
2018-09-04T13:11:18.488Z,2.07
2018-09-04T13:15:22.998Z,1.83
2018-09-04T13:19:27.384Z,1.80
2018-09-04T13:23:33.087Z,2.10
2018-09-04T13:27:37.356Z,1.87
2018-09-04T13:31:41.845Z,2.07
2018-09-04T13:35:46.128Z,2.13
2018-09-04T13:39:54.645Z,2.30
2018-09-04T13:43:58.981Z,2.30
2018-09-04T13:48:03.412Z,1.70
2018-09-04T13:52:07.754Z,2.30
2018-09-04T13:56:12.165Z,2.13
2018-09-04T14:00:17.423Z,2.07
2018-09-04T14:04:21.853Z,1.87
2018-09-04T14:08:26.077Z,3.30
2018-09-04T14:12:30.504Z,2.27
2018-09-04T14:16:43.145Z,1.97
2018-09-04T14:20:39.312Z,1.97
2018-09-04T14:24:43.793Z,2.10
2018-09-04T14:29:06.431Z,2.40
2018-09-04T14:32:52.412Z,2.20
2018-09-04T14:36:57.154Z,1.80
2018-09-04T14:41:01.691Z,2.47
2018-09-04T14:45:06.332Z,2.33
2018-09-04T14:49:10.888Z,2.33
2018-09-04T14:53:15.251Z,2.30
2018-09-04T14:57:19.584Z,2.13
2018-09-04T15:01:23.901Z,2.83
2018-09-04T15:05:29.224Z,2.43
2018-09-04T15:09:33.527Z,1.80
2018-09-04T15:13:37.900Z,2.67
2018-09-04T15:17:42.124Z,2.70
2018-09-04T15:21:46.503Z,2.40
2018-09-04T15:25:50.790Z,1.93
2018-09-04T15:29:54.987Z,2.40
2018-09-04T15:33:59.379Z,2.30
2018-09-04T15:38:03.853Z,2.40
2018-09-04T15:42:08.154Z,2.57
2018-09-04T15:46:12.651Z,2.00
2018-09-04T15:50:16.960Z,2.17
2018-09-04T15:54:22.264Z,2.00
2018-09-04T15:58:26.872Z,2.07
2018-09-04T16:02:31.253Z,2.27
2018-09-04T16:06:35.469Z,2.23
2018-09-04T16:10:39.831Z,2.20
2018-09-04T16:14:44.042Z,2.17
2018-09-04T16:18:48.363Z,1.90
2018-09-04T16:22:52.563Z,2.10
2018-09-04T16:26:56.835Z,2.20
2018-09-04T16:31:01.059Z,2.37
2018-09-04T16:35:05.413Z,2.17
2018-09-04T16:39:09.881Z,2.60
2018-09-04T16:43:15.407Z,2.17
2018-09-04T16:47:19.811Z,1.90
2018-09-04T16:51:24.055Z,2.40
2018-09-04T16:55:28.605Z,1.90
2018-09-04T16:59:33.183Z,2.30
2018-09-04T17:03:37.591Z,1.83
2018-09-04T17:07:42.337Z,2.20
2018-09-04T17:11:46.561Z,1.43
2018-09-04T17:15:50.817Z,2.33
2018-09-04T17:19:55.218Z,2.30
2018-09-04T17:23:59.616Z,1.40
2018-09-04T17:28:03.976Z,1.90
2018-09-04T17:32:08.300Z,1.93
2018-09-04T17:36:12.517Z,1.87
2018-09-04T17:40:16.882Z,1.27
2018-09-04T17:44:21.069Z,1.77
2018-09-04T17:48:26.905Z,1.80
2018-09-04T17:52:31.138Z,2.10
2018-09-04T17:56:35.530Z,1.40
2018-09-04T18:00:42.068Z,1.67
2018-09-04T18:04:46.417Z,1.83
2018-09-04T18:08:50.638Z,1.50
2018-09-04T18:12:55.230Z,1.40
2018-09-04T18:16:59.708Z,1.63
2018-09-04T18:21:04.020Z,1.93
2018-09-04T18:25:08.695Z,1.83
2018-09-04T18:29:12.902Z,2.00
2018-09-04T18:33:17.283Z,1.93
2018-09-04T18:37:21.480Z,2.10
2018-09-04T18:41:25.736Z,2.10
2018-09-04T18:45:40.983Z,2.00
2018-09-04T18:49:45.167Z,2.00
2018-09-04T18:53:49.755Z,2.03
2018-09-04T18:57:54.051Z,1.60
2018-09-04T19:01:58.820Z,1.83
2018-09-04T19:06:06.338Z,1.50
2018-09-04T19:10:11.132Z,2.20
2018-09-04T19:14:15.636Z,1.90
2018-09-04T19:18:20.217Z,1.70
2018-09-04T19:22:33.673Z,2.03
2018-09-04T19:26:39.326Z,2.40
2018-09-04T19:30:43.868Z,1.73
2018-09-04T19:34:48.255Z,2.30
2018-09-04T19:38:52.649Z,1.83
2018-09-04T19:42:57.009Z,1.93
2018-09-04T19:47:01.811Z,2.53
2018-09-04T19:51:06.669Z,2.03
2018-09-04T19:55:12.248Z,1.70
2018-09-04T19:59:16.862Z,2.20
2018-09-04T20:03:23.004Z,2.30
2018-09-04T20:07:29.705Z,2.00
2018-09-04T20:11:36.320Z,1.90
2018-09-04T20:15:43.171Z,2.27
2018-09-04T20:19:49.071Z,2.87
2018-09-04T20:23:54.646Z,3.03
2018-09-04T20:28:02.220Z,2.30
2018-09-04T20:32:09.408Z,2.37
2018-09-04T20:36:16.025Z,1.93
2018-09-04T20:40:22.547Z,2.13
2018-09-04T20:44:26.835Z,1.90
2018-09-04T20:48:34.526Z,1.70
2018-09-04T20:52:39.911Z,2.10
2018-09-04T20:56:53.945Z,1.93
2018-09-04T21:01:09.824Z,2.50
2018-09-04T21:05:25.263Z,1.87
2018-09-04T21:09:38.916Z,2.10
2018-09-04T21:13:43.150Z,2.40
2018-09-04T21:17:47.419Z,2.13
2018-09-04T21:21:51.632Z,2.17
2018-09-04T21:25:55.887Z,2.67
2018-09-04T21:30:00.079Z,2.17
2018-09-04T21:34:04.338Z,2.57
2018-09-04T21:38:08.628Z,1.93
2018-09-04T21:42:12.916Z,2.17
2018-09-04T21:46:17.092Z,2.07
2018-09-04T21:50:21.281Z,2.30
2018-09-04T21:54:25.552Z,2.60
2018-09-04T21:58:29.866Z,1.97
2018-09-04T22:02:34.085Z,2.57
2018-09-04T22:06:38.422Z,1.70
2018-09-04T22:10:43.146Z,2.27
2018-09-04T22:14:47.543Z,2.43
2018-09-04T22:18:51.921Z,1.83
2018-09-04T22:22:56.456Z,2.10
2018-09-04T22:27:04.732Z,2.00
2018-09-04T22:31:08.904Z,2.30
2018-09-04T22:35:13.502Z,2.23
2018-09-04T22:39:17.859Z,1.80
2018-09-04T22:43:22.053Z,1.73
2018-09-04T22:47:26.233Z,2.07
2018-09-04T22:51:35.620Z,2.47
2018-09-04T22:55:39.780Z,2.10
2018-09-04T22:59:44.005Z,2.00
2018-09-04T23:03:48.201Z,2.70
2018-09-04T23:07:52.402Z,1.83
2018-09-04T23:11:56.583Z,1.83
2018-09-04T23:16:00.906Z,1.87
2018-09-04T23:20:05.228Z,2.57
2018-09-04T23:24:09.410Z,2.20
2018-09-04T23:28:13.675Z,2.37
2018-09-04T23:32:17.846Z,3.03
2018-09-04T23:36:22.145Z,2.03
2018-09-04T23:40:26.405Z,2.40
2018-09-04T23:44:30.774Z,3.30
2018-09-04T23:48:34.966Z,2.60
2018-09-04T23:52:39.235Z,1.80
2018-09-04T23:56:43.508Z,1.40
